Time;durP1;ratioP1;P1;durP2;ratioP2;P2;SDS_P1;SDS_P2;PMS_P1;PMS_P2;Temp;Humidity;BMP_temperature;BMP_pressure;BME280_temperature;BME280_humidity;BME280_pressure;Samples;Min_cycle;Max_cycle;Signal;HPM_P1;HPM_P2
2023/02/09 00:02:14;;;;;;;16.48;7.60;;;1.50;99.90;;;;;;5065077;28;25064;-74
2023/02/09 00:04:41;;;;;;;16.27;8.20;;;1.50;99.90;;;;;;5063454;28;25072;-74
2023/02/09 00:07:06;;;;;;;17.60;7.80;;;1.50;99.90;;;;;;5054496;28;25069;-73
2023/02/09 00:09:32;;;;;;;18.20;8.05;;;1.50;99.90;;;;;;5061164;28;25170;-73
2023/02/09 00:14:42;;;;;;;16.63;8.38;;;1.40;99.90;;;;;;5056714;28;25078;-75
2023/02/09 00:17:08;;;;;;;18.67;8.25;;;1.40;99.90;;;;;;5059791;28;25083;-74
2023/02/09 00:19:33;;;;;;;16.45;7.57;;;1.40;99.90;;;;;;5061681;28;25048;-74
2023/02/09 00:21:59;;;;;;;19.23;8.43;;;1.40;99.90;;;;;;5069746;28;25058;-74
2023/02/09 00:24:25;;;;;;;14.77;7.80;;;1.30;99.90;;;;;;5073167;28;25095;-73
2023/02/09 00:26:50;;;;;;;17.48;8.30;;;1.30;99.90;;;;;;5061506;28;25075;-74
2023/02/09 00:29:21;;;;;;;16.27;7.55;;;1.40;99.90;;;;;;5048502;28;25117;-74
2023/02/09 00:31:47;;;;;;;14.00;7.60;;;1.30;99.90;;;;;;5034891;28;25141;-75
2023/02/09 00:34:13;;;;;;;16.17;8.88;;;1.30;99.90;;;;;;5060154;28;25068;-73
2023/02/09 00:36:39;;;;;;;15.05;8.18;;;1.40;99.90;;;;;;5037778;28;25068;-74
2023/02/09 00:39:04;;;;;;;18.48;8.07;;;1.30;99.90;;;;;;5050813;28;25099;-75
2023/02/09 00:44:15;;;;;;;17.40;7.85;;;1.30;99.90;;;;;;5054032;28;25188;-73
2023/02/09 00:46:41;;;;;;;17.02;8.88;;;1.30;99.90;;;;;;5064209;28;25108;-74
2023/02/09 00:49:07;;;;;;;18.17;7.95;;;1.30;99.90;;;;;;5062078;28;25068;-74
2023/02/09 00:51:32;;;;;;;21.27;8.00;;;1.20;99.90;;;;;;5061957;28;25055;-75
2023/02/09 00:53:58;;;;;;;15.52;7.72;;;1.20;99.90;;;;;;5051587;28;25065;-75
2023/02/09 00:56:24;;;;;;;16.45;7.47;;;1.20;99.90;;;;;;5058119;28;25062;-75
2023/02/09 00:58:49;;;;;;;20.00;8.43;;;1.20;99.90;;;;;;5047145;28;25190;-72
2023/02/09 01:01:15;;;;;;;15.75;7.15;;;1.20;99.90;;;;;;5059165;28;25053;-74
2023/02/09 01:03:41;;;;;;;19.42;7.93;;;1.10;99.90;;;;;;5067427;28;25069;-74
2023/02/09 01:06:08;;;;;;;17.83;8.63;;;1.10;99.90;;;;;;5067778;28;25073;-74
2023/02/09 01:08:34;;;;;;;18.58;8.20;;;1.10;99.90;;;;;;5048435;28;25080;-74
2023/02/09 01:11:10;;;;;;;17.35;7.88;;;1.10;99.90;;;;;;5049087;28;25117;-75
2023/02/09 01:13:36;;;;;;;17.90;7.72;;;1.10;99.90;;;;;;5055575;28;25059;-75
2023/02/09 01:16:10;;;;;;;20.27;8.05;;;1.20;99.90;;;;;;5066106;28;25057;-73
2023/02/09 01:18:35;;;;;;;16.75;8.15;;;1.10;99.90;;;;;;5045973;28;25065;-74
2023/02/09 01:21:02;;;;;;;17.77;8.15;;;1.10;99.90;;;;;;5038724;28;25069;-74
2023/02/09 01:23:28;;;;;;;23.65;7.32;;;1.00;99.90;;;;;;5063522;28;25053;-75
2023/02/09 01:26:03;;;;;;;17.95;8.10;;;1.10;99.90;;;;;;5064681;28;25072;-74
2023/02/09 01:28:29;;;;;;;21.58;8.23;;;1.00;99.90;;;;;;5042998;28;25126;-76
2023/02/09 01:30:55;;;;;;;18.95;8.35;;;0.90;99.90;;;;;;5073602;28;25058;-74
2023/02/09 01:33:20;;;;;;;14.25;7.85;;;0.90;99.90;;;;;;5078597;28;25066;-74
2023/02/09 01:35:46;;;;;;;15.93;7.97;;;0.90;99.90;;;;;;5073723;28;25062;-75
2023/02/09 01:38:12;;;;;;;16.92;7.38;;;0.90;99.90;;;;;;5063225;28;25072;-77
2023/02/09 01:40:37;;;;;;;15.68;7.07;;;0.90;99.90;;;;;;5059313;28;25059;-75
2023/02/09 01:43:03;;;;;;;21.42;8.70;;;0.90;99.90;;;;;;5052911;28;25061;-74
2023/02/09 01:45:37;;;;;;;14.75;8.77;;;0.90;99.90;;;;;;5043060;28;25072;-74
2023/02/09 01:48:03;;;;;;;20.05;8.38;;;0.90;99.90;;;;;;5063515;28;25051;-73
2023/02/09 01:50:34;;;;;;;17.90;7.57;;;0.90;99.90;;;;;;5062510;28;25063;-73
2023/02/09 01:53:00;;;;;;;16.60;8.00;;;0.90;99.90;;;;;;5068077;28;25297;-74
2023/02/09 01:55:28;;;;;;;14.77;7.88;;;0.80;99.90;;;;;;5063566;28;25069;-73
2023/02/09 01:58:01;;;;;;;16.85;7.68;;;0.80;99.90;;;;;;5065934;28;25083;-74
2023/02/09 02:00:27;;;;;;;15.00;7.72;;;0.90;99.90;;;;;;5059606;28;25056;-74
2023/02/09 02:03:00;;;;;;;16.38;7.57;;;0.90;99.90;;;;;;5064548;28;25068;-74
2023/02/09 02:05:27;;;;;;;18.98;8.93;;;0.90;99.90;;;;;;5065417;28;25114;-74
2023/02/09 02:08:04;;;;;;;17.42;8.60;;;0.90;99.90;;;;;;5051429;28;25040;-73
2023/02/09 02:10:30;;;;;;;18.27;8.32;;;1.00;99.90;;;;;;5067146;28;25051;-73
2023/02/09 02:12:57;;;;;;;14.10;6.85;;;1.00;99.90;;;;;;5058401;28;25111;-74
2023/02/09 02:15:28;;;;;;;17.27;8.27;;;0.90;99.90;;;;;;5057617;28;25103;-74
2023/02/09 02:18:15;;;;;;;18.60;8.03;;;0.90;99.90;;;;;;5055334;28;25069;-73
2023/02/09 02:20:59;;;;;;;19.08;7.72;;;0.70;99.90;;;;;;5066915;28;25101;-74
2023/02/09 02:23:40;;;;;;;21.60;8.77;;;0.70;99.90;;;;;;5060501;28;25057;-77
2023/02/09 02:26:24;;;;;;;17.45;7.25;;;0.70;99.90;;;;;;5052338;28;25064;-74
2023/02/09 02:29:12;;;;;;;15.50;7.47;;;0.70;99.90;;;;;;5063186;28;25098;-74
2023/02/09 02:32:14;;;;;;;18.38;8.60;;;0.70;99.90;;;;;;5054131;28;25048;-75
2023/02/09 02:35:03;;;;;;;16.58;7.85;;;0.70;99.90;;;;;;5076841;28;25153;-73
2023/02/09 02:37:54;;;;;;;17.90;8.38;;;0.60;99.90;;;;;;5073885;28;25055;-74
2023/02/09 02:40:41;;;;;;;16.17;8.77;;;0.60;99.90;;;;;;5072845;28;25083;-73
2023/02/09 02:43:28;;;;;;;17.38;7.85;;;0.60;99.90;;;;;;5056932;28;25082;-74
2023/02/09 02:46:09;;;;;;;17.20;9.10;;;0.70;99.90;;;;;;5041360;28;25070;-75
2023/02/09 02:48:58;;;;;;;15.35;7.50;;;0.70;99.90;;;;;;5059336;28;25141;-73
2023/02/09 02:51:41;;;;;;;17.15;8.85;;;0.70;99.90;;;;;;5065589;28;25056;-75
2023/02/09 02:54:29;;;;;;;;;;;0.60;99.90;;;;;;5064671;28;25111;-73
2023/02/09 02:57:02;;;;;;;17.38;8.00;;;0.60;99.90;;;;;;5057955;28;25192;-75
2023/02/09 02:59:36;;;;;;;19.30;8.15;;;0.60;99.90;;;;;;5065237;28;25070;-74
2023/02/09 03:02:08;;;;;;;13.35;7.60;;;0.60;99.90;;;;;;5055892;28;25056;-72
2023/02/09 03:04:36;;;;;;;16.55;8.23;;;0.60;99.90;;;;;;5062058;28;25089;-74
2023/02/09 03:07:06;;;;;;;23.45;7.50;;;0.60;99.90;;;;;;5061343;28;25151;-74
2023/02/09 03:09:32;;;;;;;18.27;7.55;;;0.60;99.90;;;;;;5057554;28;25056;-74
2023/02/09 03:12:10;;;;;;;15.43;7.38;;;0.60;99.90;;;;;;5073464;28;25068;-75
2023/02/09 03:14:52;;;;;;;14.63;7.47;;;0.60;99.90;;;;;;5071169;28;25069;-74
2023/02/09 03:17:51;;;;;;;16.63;8.33;;;0.60;99.90;;;;;;5071648;28;25055;-74
2023/02/09 03:20:37;;;;;;;20.33;8.30;;;0.60;99.90;;;;;;5060434;28;25187;-74
2023/02/09 03:23:06;;;;;;;14.85;7.07;;;0.50;99.90;;;;;;5056017;28;25101;-75
2023/02/09 03:25:44;;;;;;;16.23;8.15;;;0.60;99.90;;;;;;5054209;28;25163;-74
2023/02/09 03:28:18;;;;;;;18.80;8.50;;;0.50;99.90;;;;;;5054511;28;25133;-76
2023/02/09 03:30:48;;;;;;;13.98;7.22;;;0.50;99.90;;;;;;5052663;28;25109;-73
2023/02/09 03:33:23;;;;;;;16.45;7.75;;;0.60;99.90;;;;;;5056980;28;25074;-75
2023/02/09 03:35:53;;;;;;;18.15;7.53;;;0.60;99.90;;;;;;5056644;28;24999;-74
2023/02/09 03:38:19;;;;;;;16.77;7.78;;;0.50;99.90;;;;;;5058858;28;25091;-75
2023/02/09 03:40:45;;;;;;;13.45;6.18;;;0.50;99.90;;;;;;5063778;28;25153;-74
2023/02/09 03:43:11;;;;;;;16.80;7.07;;;0.60;99.90;;;;;;5054531;28;25172;-74
2023/02/09 03:45:37;;;;;;;15.73;7.07;;;0.60;99.90;;;;;;5059858;28;25147;-74
2023/02/09 03:48:06;;;;;;;17.20;8.05;;;0.60;99.90;;;;;;5060018;28;25082;-75
2023/02/09 03:50:36;;;;;;;20.17;7.00;;;0.60;99.90;;;;;;5071866;28;25077;-74
2023/02/09 03:53:05;;;;;;;13.60;7.28;;;0.70;99.90;;;;;;5047475;28;25122;-76
2023/02/09 03:55:31;;;;;;;16.45;7.80;;;0.60;99.90;;;;;;5060392;28;25070;-75
2023/02/09 03:57:57;;;;;;;16.60;6.78;;;0.60;99.90;;;;;;5037642;28;25053;-74
2023/02/09 04:00:23;;;;;;;12.52;6.68;;;0.60;99.90;;;;;;5059580;28;25072;-75
2023/02/09 04:02:48;;;;;;;13.80;7.18;;;0.60;99.90;;;;;;5062091;28;25098;-76
2023/02/09 04:05:14;;;;;;;13.82;7.20;;;0.60;99.90;;;;;;5054751;28;25067;-75
2023/02/09 04:07:40;;;;;;;11.30;5.97;;;0.60;99.90;;;;;;5049064;28;25097;-73
2023/02/09 04:10:06;;;;;;;25.08;7.43;;;0.70;99.90;;;;;;5055813;28;25093;-75
2023/02/09 04:12:32;;;;;;;13.13;6.38;;;0.70;99.90;;;;;;5046812;28;25075;-75
2023/02/09 04:14:57;;;;;;;14.57;7.05;;;0.80;99.90;;;;;;5054047;28;25091;-74
2023/02/09 04:17:23;;;;;;;17.70;6.90;;;0.80;99.90;;;;;;5061552;28;25148;-75
2023/02/09 04:19:49;;;;;;;16.77;6.55;;;0.90;99.90;;;;;;5064283;28;25054;-74
2023/02/09 04:22:14;;;;;;;14.25;6.47;;;0.90;99.90;;;;;;5060278;28;25073;-74
2023/02/09 04:24:40;;;;;;;15.20;7.10;;;0.90;99.90;;;;;;5044692;28;25050;-75
2023/02/09 04:27:06;;;;;;;15.00;6.00;;;0.90;99.90;;;;;;5054751;28;25072;-74
2023/02/09 04:29:31;;;;;;;12.98;5.97;;;0.90;99.90;;;;;;5064294;28;25047;-74
2023/02/09 04:31:57;;;;;;;10.32;6.22;;;1.00;99.90;;;;;;5061937;28;25083;-75
2023/02/09 04:34:23;;;;;;;14.75;5.97;;;0.90;99.90;;;;;;5061304;28;25075;-74
2023/02/09 04:36:49;;;;;;;14.90;6.53;;;0.90;99.90;;;;;;5050617;28;25094;-73
2023/02/09 04:39:16;;;;;;;14.50;6.72;;;0.90;97.50;;;;;;5061013;28;25106;-73
2023/02/09 04:41:41;;;;;;;14.70;6.13;;;0.90;97.60;;;;;;5056359;28;25092;-74
2023/02/09 04:44:07;;;;;;;11.48;6.00;;;0.90;98.90;;;;;;5055953;28;25072;-73
2023/02/09 04:46:33;;;;;;;36.58;6.95;;;0.90;94.40;;;;;;5062580;28;25126;-75
2023/02/09 04:48:59;;;;;;;11.65;6.25;;;0.90;95.90;;;;;;5065486;28;25068;-73
2023/02/09 04:51:24;;;;;;;13.68;6.07;;;0.80;95.20;;;;;;5061719;28;25069;-74
2023/02/09 04:53:50;;;;;;;11.15;5.80;;;0.80;96.20;;;;;;5045525;28;25083;-73
2023/02/09 04:56:16;;;;;;;14.15;5.47;;;0.90;89.10;;;;;;5040938;28;25148;-73
2023/02/09 05:01:27;;;;;;;13.77;5.70;;;0.80;76.50;;;;;;5057508;28;25089;-81
2023/02/09 05:03:53;;;;;;;9.52;5.35;;;0.80;78.10;;;;;;5053873;28;25167;-73
2023/02/09 05:06:19;;;;;;;14.60;5.72;;;0.80;77.50;;;;;;5051002;28;25091;-72
2023/02/09 05:08:45;;;;;;;11.75;5.13;;;0.80;68.00;;;;;;5056667;28;25074;-71
2023/02/09 05:11:11;;;;;;;14.68;6.28;;;0.80;60.90;;;;;;5047366;28;25058;-70
2023/02/09 05:13:37;;;;;;;13.10;5.38;;;0.80;63.70;;;;;;5058217;28;25090;-72
2023/02/09 05:16:07;;;;;;;15.95;5.88;;;0.80;67.90;;;;;;5065121;28;25168;-72
2023/02/09 05:18:34;;;;;;;13.27;6.38;;;0.80;72.50;;;;;;5062102;28;25138;-74
2023/02/09 05:21:00;;;;;;;14.90;6.00;;;0.80;74.10;;;;;;5050424;28;25129;-72
2023/02/09 05:23:26;;;;;;;14.60;5.90;;;0.80;79.70;;;;;;5063759;28;25076;-70
2023/02/09 05:25:51;;;;;;;14.30;5.75;;;0.80;92.10;;;;;;5053826;28;25064;-76
2023/02/09 05:28:17;;;;;;;17.80;6.35;;;0.70;83.10;;;;;;5058974;28;25054;-73
2023/02/09 05:30:43;;;;;;;20.88;6.88;;;0.70;86.30;;;;;;5060195;28;25116;-75
2023/02/09 05:33:09;;;;;;;19.48;7.13;;;0.70;89.40;;;;;;5069760;28;25064;-77
2023/02/09 05:35:34;;;;;;;11.23;5.75;;;0.70;83.60;;;;;;5067211;28;25085;-71
2023/02/09 05:38:00;;;;;;;15.63;6.13;;;0.70;81.10;;;;;;5057607;28;25061;-74
2023/02/09 05:40:26;;;;;;;12.05;6.43;;;0.70;84.70;;;;;;5054279;28;25159;-74
2023/02/09 05:42:51;;;;;;;13.68;6.50;;;0.60;88.10;;;;;;5057601;28;25076;-75
2023/02/09 05:45:17;;;;;;;12.63;5.85;;;0.60;96.70;;;;;;5061767;28;25066;-73
2023/02/09 05:47:45;;;;;;;20.52;7.97;;;0.70;96.20;;;;;;5061889;28;25058;-74
2023/02/09 05:50:10;;;;;;;19.02;6.72;;;0.70;95.70;;;;;;5048706;28;25060;-77
2023/02/09 05:52:36;;;;;;;13.90;5.88;;;0.70;98.60;;;;;;5054574;28;25085;-76
2023/02/09 05:55:02;;;;;;;16.42;6.63;;;0.70;99.90;;;;;;5055334;28;25140;-76
2023/02/09 05:57:28;;;;;;;16.00;6.28;;;0.60;99.90;;;;;;5042536;28;25061;-76
2023/02/09 05:59:53;;;;;;;13.18;6.57;;;0.50;99.90;;;;;;5059948;28;25064;-77
2023/02/09 06:02:19;;;;;;;16.50;6.18;;;0.50;99.90;;;;;;5057909;28;25068;-77
2023/02/09 06:04:45;;;;;;;13.75;6.75;;;0.50;99.90;;;;;;5047231;28;25121;-75
2023/02/09 06:07:11;;;;;;;12.20;6.63;;;0.50;99.90;;;;;;5054282;28;25064;-76
2023/02/09 06:09:37;;;;;;;16.17;7.25;;;0.60;99.90;;;;;;5064123;28;25052;-77
2023/02/09 06:12:03;;;;;;;12.48;5.50;;;0.60;99.90;;;;;;5060947;28;25193;-76
2023/02/09 06:14:28;;;;;;;15.93;6.55;;;0.70;99.90;;;;;;5049813;28;25064;-74
2023/02/09 06:16:54;;;;;;;12.65;5.65;;;0.80;99.90;;;;;;5060348;28;25065;-73
2023/02/09 06:19:20;;;;;;;14.63;6.28;;;0.80;99.90;;;;;;5064488;28;25061;-77
2023/02/09 06:21:46;;;;;;;11.93;6.15;;;0.70;99.90;;;;;;5059046;28;25095;-76
2023/02/09 06:24:13;;;;;;;14.13;6.40;;;0.70;99.90;;;;;;5065369;28;25105;-74
2023/02/09 06:26:40;;;;;;;12.57;6.35;;;0.70;99.90;;;;;;5059218;28;25146;-74
2023/02/09 06:29:06;;;;;;;16.08;6.38;;;0.60;99.90;;;;;;5045762;28;25043;-78
2023/02/09 06:31:33;;;;;;;14.82;6.00;;;0.50;99.90;;;;;;5049513;28;25068;-74
2023/02/09 06:33:59;;;;;;;13.52;6.65;;;0.50;99.90;;;;;;5062372;28;25091;-73
2023/02/09 06:36:24;;;;;;;19.77;6.75;;;0.60;99.90;;;;;;5055931;28;25095;-75
2023/02/09 06:38:50;;;;;;;16.10;6.88;;;0.60;99.90;;;;;;5060631;28;25084;-76
2023/02/09 06:41:16;;;;;;;16.67;7.47;;;0.50;99.90;;;;;;5061938;28;25074;-76
2023/02/09 06:43:42;;;;;;;12.13;5.78;;;0.50;99.90;;;;;;5047531;28;25065;-75
2023/02/09 06:46:10;;;;;;;17.40;7.65;;;0.60;99.90;;;;;;5051235;28;25104;-75
2023/02/09 06:48:37;;;;;;;14.00;7.38;;;0.70;99.90;;;;;;5034371;28;25057;-76
2023/02/09 06:51:13;;;;;;;19.60;8.13;;;0.60;99.90;;;;;;5061837;28;25106;-72
2023/02/09 06:53:39;;;;;;;13.70;6.78;;;0.50;99.90;;;;;;5069795;28;25053;-73
2023/02/09 06:56:06;;;;;;;18.73;7.07;;;0.40;99.90;;;;;;5068589;28;24752;-77
2023/02/09 06:58:32;;;;;;;18.27;7.20;;;0.40;99.90;;;;;;5076656;28;25054;-80
2023/02/09 07:01:05;;;;;;;17.30;7.05;;;0.40;99.90;;;;;;5084383;28;25072;-77
2023/02/09 07:03:31;;;;;;;19.30;7.20;;;0.40;99.90;;;;;;5054478;28;25150;-74
2023/02/09 07:06:09;;;;;;;15.65;7.50;;;0.30;99.90;;;;;;5046134;28;25104;-73
2023/02/09 07:08:35;;;;;;;14.43;7.57;;;0.30;99.90;;;;;;5058635;28;25067;-74
2023/02/09 07:11:06;;;;;;;20.25;7.82;;;0.30;99.90;;;;;;5069205;28;25060;-74
2023/02/09 07:13:32;;;;;;;16.95;7.40;;;0.30;99.90;;;;;;5055536;28;25071;-75
2023/02/09 07:15:59;;;;;;;15.88;6.75;;;0.20;99.90;;;;;;5061180;28;25118;-76
2023/02/09 07:18:25;;;;;;;18.08;7.75;;;0.20;99.90;;;;;;5066268;28;25134;-75
2023/02/09 07:20:56;;;;;;;17.70;6.55;;;0.20;99.90;;;;;;5065401;28;25068;-73
2023/02/09 07:23:23;;;;;;;19.98;6.70;;;0.20;99.90;;;;;;5071943;28;25066;-77
2023/02/09 07:25:49;;;;;;;14.73;6.55;;;0.20;99.90;;;;;;5066358;28;25128;-76
2023/02/09 07:28:15;;;;;;;20.15;7.30;;;0.30;99.90;;;;;;5067277;28;25486;-73
2023/02/09 07:30:40;;;;;;;16.23;7.20;;;0.30;99.90;;;;;;5061013;28;25066;-74
2023/02/09 07:33:07;;;;;;;14.20;7.45;;;0.30;99.90;;;;;;5073261;28;25062;-73
2023/02/09 07:35:33;;;;;;;18.10;7.25;;;0.30;99.90;;;;;;5062296;28;25153;-73
2023/02/09 07:37:58;;;;;;;13.07;7.65;;;0.30;99.90;;;;;;5038856;28;25066;-75
2023/02/09 07:40:24;;;;;;;15.27;6.57;;;0.30;99.90;;;;;;5057559;28;25068;-72
2023/02/09 07:42:50;;;;;;;14.45;7.55;;;0.20;99.90;;;;;;5047437;28;25059;-74
2023/02/09 07:45:16;;;;;;;19.85;6.95;;;0.20;99.90;;;;;;5042592;28;25088;-75
2023/02/09 07:47:42;;;;;;;15.15;6.85;;;0.30;99.90;;;;;;5046960;28;25108;-72
2023/02/09 07:50:08;;;;;;;20.80;7.57;;;0.40;99.90;;;;;;5060924;28;25064;-72
2023/02/09 07:52:33;;;;;;;14.35;7.32;;;0.40;99.90;;;;;;5063281;28;25181;-73
2023/02/09 07:54:59;;;;;;;24.35;7.72;;;0.40;99.90;;;;;;5050555;28;25108;-73
2023/02/09 07:57:26;;;;;;;15.25;6.93;;;0.50;99.90;;;;;;5067555;28;25109;-76
2023/02/09 07:59:52;;;;;;;18.40;6.75;;;0.60;99.90;;;;;;5066430;28;25085;-74
2023/02/09 08:02:35;;;;;;;18.92;7.57;;;0.60;99.90;;;;;;5072270;28;25176;-78
2023/02/09 08:05:03;;;;;;;18.75;7.38;;;0.60;99.90;;;;;;5047381;28;25047;-76
2023/02/09 08:07:32;;;;;;;14.95;6.72;;;0.70;99.90;;;;;;5059674;28;25189;-74
2023/02/09 08:09:57;;;;;;;19.08;7.40;;;0.70;99.90;;;;;;5052294;28;25071;-72
2023/02/09 08:12:58;;;;;;;19.92;7.55;;;0.70;99.90;;;;;;5067269;28;25088;-75
2023/02/09 08:15:19;;;;;;;14.27;7.15;;;0.80;99.90;;;;;;5075329;28;25056;-72
2023/02/09 08:17:46;;;;;;;14.95;7.43;;;0.90;99.90;;;;;;5069173;28;25071;-74
2023/02/09 08:20:17;;;;;;;18.73;7.32;;;0.90;99.90;;;;;;5061949;28;25062;-74
2023/02/09 08:22:47;;;;;;;16.65;6.90;;;1.00;99.90;;;;;;5043366;28;25157;-72
2023/02/09 08:25:15;;;;;;;20.30;7.15;;;1.10;99.90;;;;;;5032037;28;25145;-73
2023/02/09 08:27:42;;;;;;;21.08;7.65;;;1.20;99.90;;;;;;5056194;28;25068;-73
2023/02/09 08:30:09;;;;;;;16.50;7.85;;;1.20;99.90;;;;;;5053233;28;25011;-73
2023/02/09 08:32:35;;;;;;;22.45;7.15;;;1.20;99.90;;;;;;5050670;28;25068;-74
2023/02/09 08:35:00;;;;;;;13.93;6.25;;;1.40;99.90;;;;;;5053856;28;25108;-73
2023/02/09 08:37:26;;;;;;;15.05;6.65;;;1.40;99.90;;;;;;5030525;28;25122;-74
2023/02/09 08:39:52;;;;;;;17.83;6.50;;;1.40;99.90;;;;;;5062238;28;25066;-73
2023/02/09 08:42:17;;;;;;;16.27;7.43;;;1.40;99.90;;;;;;5051035;28;25113;-74
2023/02/09 08:44:43;;;;;;;17.38;7.57;;;1.50;99.90;;;;;;5042979;28;25067;-71
2023/02/09 08:47:08;;;;;;;19.00;6.93;;;1.50;99.90;;;;;;5055131;28;25072;-74
2023/02/09 08:49:34;;;;;;;20.60;6.95;;;1.60;99.90;;;;;;5055331;28;25070;-75
2023/02/09 08:52:00;;;;;;;16.25;7.40;;;1.70;99.90;;;;;;5062525;28;25130;-75
2023/02/09 08:54:26;;;;;;;16.45;6.80;;;1.70;99.90;;;;;;5061842;28;25073;-73
2023/02/09 08:56:52;;;;;;;13.88;6.68;;;1.70;99.90;;;;;;5062090;28;25143;-75
2023/02/09 08:59:17;;;;;;;18.67;6.45;;;1.70;99.90;;;;;;5041277;28;25070;-72
2023/02/09 09:01:43;;;;;;;18.45;6.65;;;1.80;99.90;;;;;;5048935;28;25141;-73
2023/02/09 09:04:09;;;;;;;21.33;7.25;;;1.80;99.90;;;;;;5053563;28;25051;-76
2023/02/09 09:06:35;;;;;;;13.57;6.70;;;1.90;96.60;;;;;;5055703;28;25104;-76
2023/02/09 09:09:01;;;;;;;19.40;7.80;;;2.00;91.80;;;;;;5048387;28;25058;-77
2023/02/09 09:11:28;;;;;;;16.88;7.25;;;2.00;90.30;;;;;;5054518;28;25094;-73
2023/02/09 09:13:54;;;;;;;14.95;6.28;;;2.00;85.50;;;;;;5052623;28;25080;-73
2023/02/09 09:16:21;;;;;;;17.33;6.53;;;2.10;62.80;;;;;;5053641;28;25129;-74
2023/02/09 09:18:48;;;;;;;19.45;7.00;;;2.10;57.40;;;;;;5055641;28;25076;-72
2023/02/09 09:21:16;;;;;;;15.40;7.90;;;2.10;67.60;;;;;;5054134;28;25055;-73
2023/02/09 09:23:43;;;;;;;17.15;7.13;;;2.20;54.70;;;;;;5052364;28;25080;-77
2023/02/09 09:26:08;;;;;;;17.00;7.60;;;2.20;44.90;;;;;;5056571;28;25054;-74
2023/02/09 09:28:34;;;;;;;18.63;6.65;;;2.30;35.30;;;;;;5053073;28;25067;-76
2023/02/09 09:31:07;;;;;;;17.35;7.18;;;2.40;41.40;;;;;;5047389;28;25075;-77
2023/02/09 09:33:32;;;;;;;18.40;7.60;;;2.50;26.50;;;;;;5045239;28;25157;-76
2023/02/09 09:36:02;;;;;;;19.60;6.97;;;2.50;34.00;;;;;;5046868;28;25093;-75
2023/02/09 09:38:28;;;;;;;19.63;7.88;;;2.60;27.60;;;;;;5058185;28;25057;-74
2023/02/09 09:40:54;;;;;;;15.70;7.15;;;2.60;40.30;;;;;;5036195;28;25072;-73
2023/02/09 09:43:27;;;;;;;15.20;7.32;;;2.80;35.40;;;;;;5029076;28;25088;-76
2023/02/09 09:45:53;;;;;;;14.95;6.70;;;3.00;26.90;;;;;;5042335;28;25144;-75
2023/02/09 09:48:30;;;;;;;13.55;6.88;;;3.00;2.30;;;;;;5054390;28;25058;-73
2023/02/09 09:51:01;;;;;;;17.38;7.88;;;3.00;2.40;;;;;;5037106;28;25138;-75
2023/02/09 09:53:32;;;;;;;16.80;6.85;;;3.10;6.70;;;;;;5061122;28;25078;-74
2023/02/09 09:56:01;;;;;;;17.42;7.43;;;3.20;3.80;;;;;;5032677;28;25069;-75
2023/02/09 09:58:29;;;;;;;21.08;8.45;;;3.20;1.00;;;;;;5055847;28;25164;-75
2023/02/09 10:00:55;;;;;;;17.63;7.63;;;3.30;1.00;;;;;;5058134;28;25089;-74
2023/02/09 10:03:22;;;;;;;16.80;7.65;;;3.30;1.00;;;;;;5050364;28;25102;-73
2023/02/09 10:06:14;;;;;;;21.58;8.05;;;3.40;1.00;;;;;;5060992;28;25072;-73
2023/02/09 10:09:02;;;;;;;18.35;8.27;;;3.30;1.50;;;;;;5039240;28;25071;-74
2023/02/09 10:11:35;;;;;;;18.95;8.23;;;3.50;17.60;;;;;;5055452;28;25055;-74
2023/02/09 10:14:00;;;;;;;;;;;3.60;16.10;;;;;;5051986;28;25115;-75
2023/02/09 10:16:29;;;;;;;21.90;8.43;;;3.70;1.00;;;;;;5053797;28;24110;-75
2023/02/09 10:18:58;;;;;;;18.33;8.93;;;3.80;1.00;;;;;;5054520;28;25078;-75
2023/02/09 10:21:29;;;;;;;21.88;8.70;;;3.70;1.00;;;;;;5044588;28;25122;-73
2023/02/09 10:24:01;;;;;;;17.08;8.55;;;3.70;24.10;;;;;;5051639;28;25065;-77
2023/02/09 10:26:26;;;;;;;19.15;8.75;;;3.80;45.60;;;;;;5059068;28;25058;-74
2023/02/09 10:28:57;;;;;;;19.30;8.88;;;4.00;38.90;;;;;;5043829;28;25108;-77
2023/02/09 10:31:53;;;;;;;19.30;8.98;;;4.10;10.20;;;;;;5054002;28;25115;-74
2023/02/09 10:34:44;;;;;;;21.55;9.23;;;4.10;1.00;;;;;;5040978;28;25060;-75
2023/02/09 10:37:22;;;;;;;22.10;9.35;;;4.20;1.00;;;;;;5046264;28;25104;-74
2023/02/09 10:40:04;;;;;;;17.02;7.80;;;4.20;10.10;;;;;;5072363;28;25069;-73
2023/02/09 10:42:35;;;;;;;20.77;9.13;;;4.20;5.30;;;;;;5072449;28;25054;-74
2023/02/09 10:45:31;;;;;;;21.42;9.40;;;4.20;1.00;;;;;;5053169;28;25065;-75
2023/02/09 10:48:11;;;;;;;16.35;7.88;;;4.20;6.20;;;;;;5060470;28;25065;-73
2023/02/09 10:51:05;;;;;;;19.55;8.07;;;4.40;6.40;;;;;;5062564;28;25069;-75
2023/02/09 10:53:36;;;;;;;28.00;9.82;;;4.40;5.80;;;;;;5060275;28;25066;-76
2023/02/09 10:56:23;;;;;;;20.98;8.98;;;4.60;9.50;;;;;;5063501;28;25155;-75
2023/02/09 10:58:58;;;;;;;19.88;8.85;;;4.60;3.10;;;;;;5060621;28;25068;-74
2023/02/09 11:01:28;;;;;;;22.48;9.52;;;4.70;14.70;;;;;;5043432;28;25081;-73
2023/02/09 11:04:15;;;;;;;24.77;8.88;;;4.70;21.20;;;;;;5060088;28;25150;-78
2023/02/09 11:07:00;;;;;;;21.65;10.02;;;4.80;3.40;;;;;;5058917;28;25137;-74
2023/02/09 11:09:32;;;;;;;19.10;9.90;;;4.70;19.80;;;;;;5062093;28;25075;-76
2023/02/09 11:11:59;;;;;;;19.42;9.65;;;4.50;43.70;;;;;;5058629;28;25160;-75
2023/02/09 11:14:24;;;;;;;21.20;9.48;;;4.40;85.50;;;;;;5063418;28;25087;-77
2023/02/09 11:17:27;;;;;;;22.33;9.50;;;4.60;97.90;;;;;;5060187;28;25080;-73
2023/02/09 11:20:20;;;;;;;18.75;9.00;;;4.80;98.10;;;;;;5040175;28;25059;-77
2023/02/09 11:23:19;;;;;;;26.23;10.38;;;5.00;85.60;;;;;;5057473;28;25136;-74
2023/02/09 11:25:55;;;;;;;22.77;9.95;;;5.00;62.70;;;;;;5034103;28;25061;-72
2023/02/09 11:28:37;;;;;;;27.50;11.07;;;5.00;77.20;;;;;;5058275;28;25083;-77
2023/02/09 11:31:32;;;;;;;24.23;10.52;;;4.90;99.30;;;;;;5064117;28;25107;-72
2023/02/09 11:34:19;;;;;;;18.63;9.98;;;5.20;99.90;;;;;;5054573;28;25081;-74
2023/02/09 11:36:58;;;;;;;22.38;10.38;;;5.20;99.90;;;;;;5059078;28;25131;-75
2023/02/09 11:39:26;;;;;;;28.73;11.23;;;5.40;99.90;;;;;;5054568;28;25054;-73
2023/02/09 11:45:03;;;;;;;22.90;10.82;;;5.50;90.50;;;;;;5059220;28;25069;-76
2023/02/09 11:47:57;;;;;;;26.67;11.27;;;5.60;86.70;;;;;;5067939;28;25075;-74
2023/02/09 11:51:02;;;;;;;25.77;11.73;;;5.60;91.00;;;;;;5062766;28;25100;-73
2023/02/09 11:53:50;;;;;;;23.52;10.50;;;5.70;90.00;;;;;;5063507;28;25068;-72
2023/02/09 11:56:19;;;;;;;22.90;10.75;;;5.70;74.10;;;;;;5061783;28;25066;-73
2023/02/09 11:59:32;;;;;;;26.45;10.93;;;5.60;61.20;;;;;;5064798;28;25059;-73
2023/02/09 12:02:25;;;;;;;21.98;10.20;;;5.40;99.90;;;;;;4985875;28;25089;-73
2023/02/09 12:05:00;;;;;;;23.38;10.63;;;5.30;99.90;;;;;;4988976;28;25063;-75
2023/02/09 12:07:37;;;;;;;34.55;12.35;;;5.40;99.90;;;;;;5037392;28;25057;-74
2023/02/09 12:10:24;;;;;;;22.63;11.38;;;5.50;99.90;;;;;;5054595;28;25139;-74
2023/02/09 12:12:57;;;;;;;24.40;11.95;;;5.60;99.90;;;;;;5051095;28;25048;-73
2023/02/09 12:15:37;;;;;;;27.95;13.25;;;5.80;99.90;;;;;;5063266;28;25080;-73
2023/02/09 12:18:15;;;;;;;24.25;11.60;;;5.80;99.90;;;;;;5058174;28;25081;-73
2023/02/09 12:20:40;;;;;;;23.35;12.05;;;5.90;99.90;;;;;;5057103;28;25086;-73
2023/02/09 12:23:24;;;;;;;25.85;11.77;;;6.00;99.90;;;;;;5053775;28;25044;-74
2023/02/09 12:25:53;;;;;;;24.58;11.13;;;6.20;99.90;;;;;;5063230;28;25060;-72
2023/02/09 12:28:31;;;;;;;28.33;12.45;;;6.10;99.90;;;;;;5037928;28;25056;-73
2023/02/09 12:30:58;;;;;;;25.65;12.80;;;5.90;99.90;;;;;;5040848;28;25151;-74
2023/02/09 12:33:23;;;;;;;32.03;12.35;;;6.00;99.90;;;;;;5057149;28;25066;-75
2023/02/09 12:36:14;;;;;;;25.05;12.25;;;6.00;99.90;;;;;;5043785;28;25074;-73
2023/02/09 12:38:49;;;;;;;27.88;13.23;;;6.00;99.90;;;;;;5063407;28;25058;-73
2023/02/09 12:41:19;;;;;;;29.95;12.93;;;6.10;99.90;;;;;;5054559;28;25076;-74
2023/02/09 12:43:46;;;;;;;22.08;11.77;;;6.30;99.90;;;;;;5050569;28;25067;-73
2023/02/09 12:46:28;;;;;;;22.75;11.32;;;6.40;99.90;;;;;;5039780;28;25148;-75
2023/02/09 12:49:00;;;;;;;31.60;14.10;;;6.50;99.90;;;;;;5050200;28;25116;-74
2023/02/09 12:51:51;;;;;;;26.38;12.63;;;6.40;99.90;;;;;;5048827;28;25135;-73
2023/02/09 12:54:44;;;;;;;30.30;13.70;;;6.20;99.90;;;;;;5036054;28;25141;-74
2023/02/09 12:57:19;;;;;;;29.95;13.90;;;6.10;99.90;;;;;;5054387;28;25107;-73
2023/02/09 12:59:59;;;;;;;24.88;12.88;;;6.30;99.90;;;;;;5050560;28;25135;-73
2023/02/09 13:02:42;;;;;;;27.95;12.75;;;6.40;99.90;;;;;;5063128;28;25149;-74
2023/02/09 13:05:13;;;;;;;29.60;12.05;;;6.60;99.90;;;;;;5046295;28;25141;-74
2023/02/09 13:07:54;;;;;;;25.20;13.13;;;6.40;99.90;;;;;;5064901;28;25085;-74
2023/02/09 13:10:41;;;;;;;32.10;14.60;;;6.40;99.90;;;;;;5062247;28;25109;-75
2023/02/09 13:13:09;;;;;;;27.85;13.30;;;6.40;99.90;;;;;;5062226;28;25156;-73
2023/02/09 13:16:04;;;;;;;31.20;13.88;;;6.40;99.90;;;;;;5052562;28;25073;-73
2023/02/09 13:18:40;;;;;;;29.98;14.93;;;6.30;99.90;;;;;;5007531;28;25127;-75
2023/02/09 13:21:23;;;;;;;28.00;13.23;;;6.30;99.90;;;;;;5059458;28;25141;-74